Terminal Aerodrome Forecast
Issued by NWS King Salmon, AK

Home | Current Version | Previous Version | Text Only | Print | Product List | Glossary On
Versions: 1 2 3 4 5 6 7 8 9 10 11 12 13 14 15 16 17 18 19 20 21 22 23 24 25 26 27 28 29 30
000
FTAK31 PANC 020524
TAFAKN
TAF
PAKN 020524Z 0206/0306 27011KT P6SM VCSH SCT035 BKN050
     FM020900 20005KT P6SM -SHRA SCT020 BKN045
     FM021200 18005KT 5SM BR SCT002 BKN005
     FM021800 19010KT P6SM VCSH BKN020
     FM030000 21008KT P6SM BKN100=

USA.gov is the U.S. government's official web portal to all federal, state and local government web resources and services.